createdAt,value
2018-12-27T00:00:22.427Z,60.00
2018-12-27T00:02:54.978Z,60.14
2018-12-27T00:05:22.771Z,60.18
2018-12-27T00:07:51.998Z,60.27
2018-12-27T00:10:20.922Z,60.24
2018-12-27T00:12:50.418Z,60.26
2018-12-27T00:15:19.359Z,60.25
2018-12-27T00:17:48.508Z,60.37
2018-12-27T00:20:17.573Z,60.49
2018-12-27T00:22:46.421Z,60.49
2018-12-27T00:25:15.865Z,60.49
2018-12-27T00:27:44.948Z,60.44
2018-12-27T00:30:14.299Z,60.36
2018-12-27T00:32:43.808Z,60.29
2018-12-27T00:35:13.515Z,60.22
2018-12-27T00:37:43.149Z,60.15
2018-12-27T00:40:12.166Z,60.23
2018-12-27T00:42:41.753Z,60.31
2018-12-27T00:45:11.337Z,60.48
2018-12-27T00:47:40.641Z,60.61
2018-12-27T00:50:09.958Z,60.69
2018-12-27T00:52:39.198Z,60.73
2018-12-27T00:55:08.167Z,60.72
2018-12-27T00:57:38.045Z,60.68
2018-12-27T01:00:07.547Z,60.70
2018-12-27T01:02:37.597Z,60.70
2018-12-27T01:05:07.487Z,60.70
2018-12-27T01:07:37.094Z,60.73
2018-12-27T01:10:06.397Z,60.71
2018-12-27T01:12:35.703Z,60.66
2018-12-27T01:15:05.023Z,60.63
2018-12-27T01:17:34.629Z,60.64
2018-12-27T01:20:03.933Z,60.59
2018-12-27T01:22:33.520Z,60.55
2018-12-27T01:25:03.069Z,60.51
2018-12-27T01:27:32.041Z,60.51
2018-12-27T01:30:01.341Z,60.48
2018-12-27T01:32:30.316Z,60.47
2018-12-27T01:34:59.288Z,60.43
2018-12-27T01:37:28.352Z,60.41
2018-12-27T01:39:57.913Z,60.40
2018-12-27T01:42:26.900Z,60.42
2018-12-27T01:44:56.233Z,60.47
2018-12-27T01:47:25.548Z,60.44
2018-12-27T01:49:54.804Z,60.43
2018-12-27T01:52:24.248Z,60.48
2018-12-27T01:54:53.241Z,60.54
2018-12-27T01:57:23.348Z,60.54
2018-12-27T01:59:52.645Z,60.57
2018-12-27T02:02:22.558Z,60.62
2018-12-27T02:04:51.517Z,60.66
2018-12-27T02:07:20.497Z,60.68
2018-12-27T02:09:50.036Z,60.73
2018-12-27T02:12:19.954Z,60.76
2018-12-27T02:14:49.177Z,60.78
2018-12-27T02:17:18.476Z,60.83
2018-12-27T02:19:47.860Z,60.83
2018-12-27T02:22:16.850Z,60.82
2018-12-27T02:24:45.826Z,60.86
2018-12-27T02:27:15.180Z,60.84
2018-12-27T02:29:44.732Z,60.87
2018-12-27T02:32:14.782Z,60.78
2018-12-27T02:34:43.754Z,60.78
2018-12-27T02:37:13.231Z,60.76
2018-12-27T02:39:42.475Z,60.74
2018-12-27T02:42:11.453Z,60.68
2018-12-27T02:44:40.699Z,60.71
2018-12-27T02:47:10.317Z,60.75
2018-12-27T02:49:39.601Z,60.73
2018-12-27T02:52:09.209Z,60.70
2018-12-27T02:54:38.552Z,60.65
2018-12-27T02:57:07.528Z,60.61
2018-12-27T02:59:36.852Z,60.55
2018-12-27T03:02:05.822Z,60.55
2018-12-27T03:04:35.101Z,60.53
2018-12-27T03:07:04.685Z,60.51
2018-12-27T03:09:34.496Z,60.54
2018-12-27T03:12:04.758Z,60.49
2018-12-27T03:14:33.986Z,60.44
2018-12-27T03:17:03.641Z,60.51
2018-12-27T03:19:32.971Z,60.61
2018-12-27T03:22:02.280Z,60.65
2018-12-27T03:24:31.579Z,60.68
2018-12-27T03:27:01.145Z,60.71
2018-12-27T03:29:30.378Z,60.67
2018-12-27T03:31:59.586Z,60.68
2018-12-27T03:34:28.814Z,60.81
2018-12-27T03:36:58.393Z,60.94
2018-12-27T03:39:27.379Z,60.95
2018-12-27T03:41:56.353Z,60.92
2018-12-27T03:44:25.841Z,60.87
2018-12-27T03:46:54.831Z,60.82
2018-12-27T03:49:24.479Z,60.79
2018-12-27T03:51:53.480Z,60.78
2018-12-27T03:54:22.449Z,60.84
2018-12-27T03:56:51.426Z,60.79
2018-12-27T03:59:20.913Z,60.78
2018-12-27T04:01:50.178Z,60.72
2018-12-27T04:04:19.144Z,60.59
2018-12-27T04:06:48.448Z,60.52
2018-12-27T04:09:17.735Z,60.51
2018-12-27T04:11:47.176Z,60.62
2018-12-27T04:14:17.149Z,60.68
2018-12-27T04:16:46.009Z,60.65
2018-12-27T04:19:15.137Z,60.58
2018-12-27T04:21:44.073Z,60.47
2018-12-27T04:24:14.398Z,60.42
2018-12-27T04:26:43.544Z,60.35
2018-12-27T04:29:12.394Z,60.35
2018-12-27T04:31:41.849Z,60.38
2018-12-27T04:34:11.246Z,60.35
2018-12-27T04:36:42.156Z,60.31
2018-12-27T04:39:10.997Z,60.33
2018-12-27T04:41:40.857Z,60.38
2018-12-27T04:44:10.244Z,60.41
2018-12-27T04:46:39.708Z,60.47
2018-12-27T04:49:08.552Z,60.54
2018-12-27T04:51:38.065Z,60.57
2018-12-27T04:54:07.185Z,60.63
2018-12-27T04:56:36.697Z,60.70
2018-12-27T04:59:06.313Z,60.73
2018-12-27T05:01:35.258Z,60.79
2018-12-27T05:04:04.215Z,60.85
2018-12-27T05:06:33.025Z,60.91
2018-12-27T05:09:02.485Z,60.93
2018-12-27T05:11:32.219Z,60.95
2018-12-27T05:14:01.076Z,60.97
2018-12-27T05:16:30.297Z,60.98
2018-12-27T05:18:59.561Z,61.00
2018-12-27T05:21:28.802Z,61.01
2018-12-27T05:23:58.062Z,60.99
2018-12-27T05:26:27.226Z,60.99
2018-12-27T05:28:56.396Z,61.03
2018-12-27T05:31:25.577Z,61.06
2018-12-27T05:33:54.433Z,61.07
2018-12-27T05:36:23.539Z,61.11
2018-12-27T05:38:52.692Z,61.21
2018-12-27T05:41:22.180Z,61.32
2018-12-27T05:43:51.126Z,61.42
2018-12-27T05:46:20.636Z,61.52
2018-12-27T05:48:50.190Z,61.53
2018-12-27T05:51:19.290Z,61.55
2018-12-27T05:53:48.486Z,61.58
2018-12-27T05:56:17.341Z,61.53
2018-12-27T05:58:46.244Z,61.40
2018-12-27T06:01:15.373Z,61.48
2018-12-27T06:03:44.670Z,61.56
2018-12-27T06:06:14.463Z,61.61
2018-12-27T06:08:44.142Z,61.59
2018-12-27T06:11:13.079Z,61.63
2018-12-27T06:13:41.925Z,61.77
2018-12-27T06:16:11.498Z,61.85
2018-12-27T06:18:41.085Z,61.84
2018-12-27T06:21:10.015Z,61.82
2018-12-27T06:23:39.188Z,61.79
2018-12-27T06:26:08.715Z,61.74
2018-12-27T06:28:38.089Z,61.72
2018-12-27T06:31:07.009Z,61.69
2018-12-27T06:33:35.858Z,61.70
2018-12-27T06:36:04.788Z,61.73
2018-12-27T06:38:33.959Z,61.72
2018-12-27T06:41:03.491Z,61.71
2018-12-27T06:43:32.976Z,61.72
2018-12-27T06:46:02.501Z,61.69
2018-12-27T06:48:31.661Z,61.71
2018-12-27T06:51:00.581Z,61.71
2018-12-27T06:53:29.769Z,61.71
2018-12-27T06:55:59.026Z,61.72
2018-12-27T06:58:28.476Z,61.79
2018-12-27T07:00:57.674Z,61.84
2018-12-27T07:03:27.012Z,61.87
2018-12-27T07:05:56.481Z,62.02
2018-12-27T07:08:25.989Z,62.11
2018-12-27T07:10:55.235Z,62.14
2018-12-27T07:13:24.340Z,62.16
2018-12-27T07:15:53.185Z,62.18
2018-12-27T07:18:22.681Z,62.18
2018-12-27T07:20:51.980Z,62.19
2018-12-27T07:23:21.184Z,62.36
2018-12-27T07:25:50.896Z,62.43
2018-12-27T07:28:20.605Z,62.46
2018-12-27T07:30:49.781Z,62.43
2018-12-27T07:33:18.994Z,62.52
2018-12-27T07:35:47.842Z,62.58
2018-12-27T07:38:17.704Z,62.50
2018-12-27T07:40:46.806Z,62.57
2018-12-27T07:43:16.918Z,62.57
2018-12-27T07:45:46.106Z,62.57
2018-12-27T07:48:15.733Z,62.66
2018-12-27T07:50:45.209Z,62.74
2018-12-27T07:53:14.471Z,62.81
2018-12-27T07:55:44.012Z,62.81
2018-12-27T07:58:13.284Z,62.82
2018-12-27T08:00:42.317Z,62.86
2018-12-27T08:03:11.845Z,62.80
2018-12-27T08:05:40.727Z,62.65
2018-12-27T08:08:10.288Z,62.63
2018-12-27T08:10:39.441Z,62.74
2018-12-27T08:13:08.461Z,62.76
2018-12-27T08:15:37.636Z,62.67
2018-12-27T08:18:06.838Z,62.53
2018-12-27T08:20:36.038Z,62.71
2018-12-27T08:23:05.335Z,62.79
2018-12-27T08:25:34.654Z,62.74
2018-12-27T08:28:04.696Z,62.76
2018-12-27T08:30:34.296Z,62.73
2018-12-27T08:33:03.208Z,62.70
2018-12-27T08:35:32.350Z,62.63
2018-12-27T08:38:01.857Z,62.61
2018-12-27T08:40:31.362Z,62.59
2018-12-27T08:43:00.755Z,62.61
2018-12-27T08:45:30.273Z,62.57
2018-12-27T08:47:59.577Z,62.60
2018-12-27T08:50:29.081Z,62.58
2018-12-27T08:52:58.275Z,62.62
2018-12-27T08:55:27.843Z,62.67
2018-12-27T08:57:57.468Z,62.60
2018-12-27T09:00:26.377Z,62.62
2018-12-27T09:02:55.582Z,62.72
2018-12-27T09:05:24.814Z,62.73
2018-12-27T09:07:54.263Z,62.65
2018-12-27T09:10:24.039Z,62.67
2018-12-27T09:12:53.215Z,62.62
2018-12-27T09:15:22.779Z,62.58
2018-12-27T09:17:52.167Z,62.66
2018-12-27T09:20:21.389Z,62.68
2018-12-27T09:22:50.815Z,62.70
2018-12-27T09:25:19.662Z,62.68
2018-12-27T09:27:48.948Z,62.68
2018-12-27T09:30:18.432Z,62.72
2018-12-27T09:32:47.917Z,62.88
2018-12-27T09:35:17.142Z,63.04
2018-12-27T09:37:46.932Z,63.16
2018-12-27T09:40:16.188Z,63.21
2018-12-27T09:42:45.632Z,63.31
2018-12-27T09:45:15.245Z,63.40
2018-12-27T09:47:44.182Z,63.34
2018-12-27T09:50:13.740Z,63.21
2018-12-27T09:52:43.557Z,63.07
2018-12-27T09:55:12.868Z,62.97
2018-12-27T09:57:42.627Z,62.85
2018-12-27T10:00:11.818Z,62.86
2018-12-27T10:02:41.437Z,62.60
2018-12-27T10:05:10.525Z,62.52
2018-12-27T10:07:39.633Z,62.51
2018-12-27T10:10:09.095Z,62.46
2018-12-27T10:12:38.275Z,62.33
2018-12-27T10:15:08.924Z,62.18
2018-12-27T10:17:38.768Z,62.01
2018-12-27T10:20:08.552Z,61.87
2018-12-27T10:22:38.122Z,61.71
2018-12-27T10:25:07.344Z,61.51
2018-12-27T10:27:37.461Z,61.21
2018-12-27T10:30:06.893Z,61.00
2018-12-27T10:32:36.337Z,60.36
2018-12-27T10:35:06.306Z,60.58
2018-12-27T10:37:35.465Z,60.66
2018-12-27T10:40:06.046Z,60.42
2018-12-27T10:42:35.218Z,60.28
2018-12-27T10:45:04.723Z,60.29
2018-12-27T10:47:33.623Z,60.34
2018-12-27T10:50:02.812Z,60.37
2018-12-27T10:52:32.009Z,60.05
2018-12-27T10:55:01.229Z,60.21
2018-12-27T10:57:30.717Z,60.08
2018-12-27T11:00:00.168Z,60.04
2018-12-27T11:02:29.764Z,59.39
2018-12-27T11:04:59.123Z,59.58
2018-12-27T11:07:29.215Z,59.31
2018-12-27T11:09:58.760Z,59.33
2018-12-27T11:12:27.923Z,59.28
2018-12-27T11:14:56.835Z,59.26
2018-12-27T11:17:25.691Z,58.58
2018-12-27T11:19:54.540Z,58.99
2018-12-27T11:22:23.724Z,58.79
2018-12-27T11:24:52.637Z,58.14
2018-12-27T11:27:21.809Z,58.58
2018-12-27T11:29:50.654Z,58.63
2018-12-27T11:32:20.011Z,58.26
2018-12-27T11:34:49.193Z,58.25
2018-12-27T11:37:18.406Z,58.41
2018-12-27T11:39:47.341Z,58.82
2018-12-27T11:42:16.451Z,58.89
2018-12-27T11:44:45.821Z,58.68
2018-12-27T11:47:15.189Z,58.37
2018-12-27T11:49:44.889Z,58.43
2018-12-27T11:52:13.986Z,57.66
2018-12-27T11:54:42.903Z,57.69
2018-12-27T11:57:12.102Z,58.20
2018-12-27T11:59:41.629Z,58.43
2018-12-27T12:02:10.651Z,58.27
2018-12-27T12:04:40.552Z,58.34
2018-12-27T12:07:09.593Z,58.04
2018-12-27T12:09:39.124Z,57.99
2018-12-27T12:12:09.957Z,57.89
2018-12-27T12:14:39.156Z,57.61
2018-12-27T12:17:08.354Z,57.65
2018-12-27T12:19:37.205Z,57.19
2018-12-27T12:22:08.524Z,57.58
2018-12-27T12:24:37.794Z,57.44
2018-12-27T12:27:07.346Z,57.45
2018-12-27T12:29:37.164Z,57.44
2018-12-27T12:32:06.478Z,57.49
2018-12-27T12:34:35.499Z,57.13
2018-12-27T12:37:05.242Z,57.16
2018-12-27T12:39:34.743Z,57.38
2018-12-27T12:42:04.420Z,57.45
2018-12-27T12:44:33.847Z,57.27
2018-12-27T12:47:03.600Z,57.47
2018-12-27T12:49:32.753Z,57.19
2018-12-27T12:52:02.112Z,57.09
2018-12-27T12:54:31.688Z,57.13
2018-12-27T12:57:00.566Z,57.35
2018-12-27T12:59:30.269Z,57.11
2018-12-27T13:01:59.183Z,56.99
2018-12-27T13:04:28.457Z,57.43
2018-12-27T13:06:57.707Z,57.41
2018-12-27T13:09:27.237Z,57.34
2018-12-27T13:11:56.370Z,57.32
2018-12-27T13:14:25.668Z,57.32
2018-12-27T13:16:54.763Z,57.66
2018-12-27T13:19:24.059Z,57.83
2018-12-27T13:21:53.345Z,57.79
2018-12-27T13:24:22.996Z,57.86
2018-12-27T13:26:52.587Z,57.88
2018-12-27T13:29:21.881Z,57.81
2018-12-27T13:31:51.488Z,57.89
2018-12-27T13:34:21.301Z,57.90
2018-12-27T13:36:50.172Z,57.49
2018-12-27T13:39:19.617Z,57.45
2018-12-27T13:41:48.545Z,57.70
2018-12-27T13:44:18.408Z,57.66
2018-12-27T13:46:47.711Z,57.53
2018-12-27T13:49:16.609Z,57.37
2018-12-27T13:51:46.312Z,57.38
2018-12-27T13:54:15.490Z,57.62
2018-12-27T13:56:44.818Z,57.73
2018-12-27T13:59:14.386Z,57.73
2018-12-27T14:01:43.694Z,57.68
2018-12-27T14:04:13.444Z,57.71
2018-12-27T14:06:42.628Z,57.69
2018-12-27T14:09:12.142Z,57.77
2018-12-27T14:11:41.644Z,57.46
2018-12-27T14:14:10.814Z,57.62
2018-12-27T14:16:39.764Z,57.93
2018-12-27T14:19:09.530Z,57.45
2018-12-27T14:21:38.743Z,57.54
2018-12-27T14:24:08.183Z,56.96
2018-12-27T14:26:37.175Z,57.33
2018-12-27T14:29:06.452Z,57.89
2018-12-27T14:31:35.446Z,58.08
2018-12-27T14:34:04.905Z,58.03
2018-12-27T14:36:39.674Z,57.84
2018-12-27T14:39:07.054Z,57.63
2018-12-27T14:41:36.017Z,57.31
2018-12-27T14:44:05.343Z,57.44
2018-12-27T14:46:34.306Z,57.61
2018-12-27T14:49:03.858Z,57.74
2018-12-27T14:51:33.081Z,57.76
2018-12-27T14:54:02.898Z,57.75
2018-12-27T14:56:31.744Z,57.61
2018-12-27T14:59:00.992Z,57.56
2018-12-27T15:01:30.209Z,57.69
2018-12-27T15:03:59.474Z,57.88
2018-12-27T15:06:28.477Z,58.10
2018-12-27T15:08:58.029Z,58.25
2018-12-27T15:11:27.389Z,58.52
2018-12-27T15:13:56.732Z,58.58
2018-12-27T15:16:26.340Z,58.61
2018-12-27T15:18:55.971Z,59.19
2018-12-27T15:21:25.228Z,59.23
2018-12-27T15:23:54.552Z,59.21
2018-12-27T15:26:23.417Z,59.12
2018-12-27T15:28:55.588Z,59.36
2018-12-27T15:31:26.123Z,59.74
2018-12-27T15:33:55.025Z,59.88
2018-12-27T15:36:24.235Z,60.06
2018-12-27T15:38:53.414Z,60.03
2018-12-27T15:41:22.957Z,60.10
2018-12-27T15:43:52.083Z,60.24
2018-12-27T15:46:21.424Z,60.16
2018-12-27T15:48:51.048Z,60.22
2018-12-27T15:51:20.618Z,60.41
2018-12-27T15:53:49.803Z,60.37
2018-12-27T15:56:19.361Z,60.35
2018-12-27T15:58:48.684Z,60.25
2018-12-27T16:01:18.268Z,60.11
2018-12-27T16:03:47.469Z,60.13
2018-12-27T16:06:16.771Z,60.07
2018-12-27T16:08:46.059Z,60.10
2018-12-27T16:11:15.061Z,60.02
2018-12-27T16:13:44.780Z,60.07
2018-12-27T16:16:13.990Z,60.24
2018-12-27T16:18:43.173Z,60.16
2018-12-27T16:21:12.617Z,59.94
2018-12-27T16:23:42.084Z,59.74
2018-12-27T16:26:10.956Z,59.64
2018-12-27T16:28:40.670Z,59.62
2018-12-27T16:31:10.015Z,59.59
2018-12-27T16:33:38.877Z,59.55
2018-12-27T16:36:08.184Z,59.59
2018-12-27T16:38:37.388Z,59.61
2018-12-27T16:41:06.425Z,59.65
2018-12-27T16:43:35.437Z,59.65
2018-12-27T16:46:05.200Z,59.64
2018-12-27T16:48:34.481Z,59.62
2018-12-27T16:51:04.055Z,59.65
2018-12-27T16:53:33.397Z,59.71
2018-12-27T16:56:02.591Z,59.73
2018-12-27T16:58:31.848Z,59.74
2018-12-27T17:01:01.177Z,59.76
2018-12-27T17:03:30.477Z,59.83
2018-12-27T17:06:00.004Z,59.92
2018-12-27T17:08:28.939Z,60.01
2018-12-27T17:10:58.961Z,60.05
2018-12-27T17:13:27.935Z,60.06
2018-12-27T17:15:57.271Z,60.12
2018-12-27T17:18:28.023Z,60.19
2018-12-27T17:20:57.310Z,60.23
2018-12-27T17:23:26.594Z,60.26
2018-12-27T17:25:55.692Z,60.30
2018-12-27T17:28:25.097Z,60.33
2018-12-27T17:30:54.192Z,60.35
2018-12-27T17:33:23.291Z,60.39
2018-12-27T17:35:52.827Z,60.40
2018-12-27T17:38:21.673Z,60.43
2018-12-27T17:40:50.526Z,60.44
2018-12-27T17:43:19.375Z,60.46
2018-12-27T17:45:49.024Z,60.47
2018-12-27T17:48:18.768Z,60.45
2018-12-27T17:50:48.345Z,60.45
2018-12-27T17:53:17.268Z,60.53
2018-12-27T17:55:46.888Z,60.58
2018-12-27T17:58:16.555Z,60.59
2018-12-27T18:00:45.927Z,60.63
2018-12-27T18:03:15.076Z,60.68
2018-12-27T18:05:44.334Z,60.76
2018-12-27T18:08:13.732Z,60.83
2018-12-27T18:10:43.212Z,60.87
2018-12-27T18:13:12.237Z,60.89
2018-12-27T18:15:42.076Z,60.89
2018-12-27T18:18:12.151Z,60.91
2018-12-27T18:20:41.929Z,60.84
2018-12-27T18:23:10.905Z,60.80
2018-12-27T18:25:39.837Z,60.76
2018-12-27T18:28:09.043Z,60.80
2018-12-27T18:30:37.979Z,60.79
2018-12-27T18:33:07.589Z,60.79
2018-12-27T18:35:36.787Z,60.81
2018-12-27T18:38:06.293Z,60.85
2018-12-27T18:40:35.229Z,60.87
2018-12-27T18:43:04.552Z,60.85
2018-12-27T18:45:34.044Z,60.82
2018-12-27T18:48:03.257Z,60.77
2018-12-27T18:50:32.411Z,60.73
2018-12-27T18:53:01.613Z,60.76
2018-12-27T18:55:30.461Z,60.75
2018-12-27T18:57:59.346Z,60.75
2018-12-27T19:00:28.680Z,60.80
2018-12-27T19:02:57.811Z,60.86
2018-12-27T19:05:26.658Z,60.89
2018-12-27T19:07:55.892Z,60.88
2018-12-27T19:10:25.406Z,60.90
2018-12-27T19:13:11.693Z,60.93
2018-12-27T19:15:47.653Z,60.93
2018-12-27T19:18:26.798Z,61.00
2018-12-27T19:21:04.670Z,60.95
2018-12-27T19:23:34.059Z,60.94
2018-12-27T19:26:02.961Z,60.96
2018-12-27T19:28:31.829Z,61.00
2018-12-27T19:31:01.028Z,61.02
2018-12-27T19:33:30.866Z,61.03
2018-12-27T19:35:59.708Z,61.00
2018-12-27T19:38:29.249Z,60.99
2018-12-27T19:40:58.500Z,60.93
2018-12-27T19:43:27.736Z,60.94
2018-12-27T19:45:57.243Z,60.98
2018-12-27T19:48:26.769Z,60.97
2018-12-27T19:50:56.049Z,60.99
2018-12-27T19:53:25.679Z,60.99
2018-12-27T19:55:54.529Z,60.96
2018-12-27T19:58:23.736Z,60.97
2018-12-27T20:00:52.851Z,61.00
2018-12-27T20:03:22.220Z,61.06
2018-12-27T20:05:51.659Z,61.09
2018-12-27T20:08:20.892Z,61.10
2018-12-27T20:10:50.173Z,61.08
2018-12-27T20:13:19.371Z,61.06
2018-12-27T20:15:48.882Z,61.07
2018-12-27T20:18:18.278Z,61.10
2018-12-27T20:20:47.201Z,61.07
2018-12-27T20:23:16.064Z,61.08
2018-12-27T20:25:45.245Z,61.13
2018-12-27T20:28:14.341Z,61.19
2018-12-27T20:30:43.377Z,61.23
2018-12-27T20:33:12.261Z,61.35
2018-12-27T20:35:41.722Z,61.35
2018-12-27T20:38:11.515Z,61.33
2018-12-27T20:40:40.792Z,61.30
2018-12-27T20:43:09.944Z,61.30
2018-12-27T20:45:38.806Z,61.28
2018-12-27T20:48:08.746Z,61.26
2018-12-27T20:50:37.891Z,61.31
2018-12-27T20:53:07.377Z,61.37
2018-12-27T20:55:36.697Z,61.40
2018-12-27T20:58:06.032Z,61.46
2018-12-27T21:00:35.320Z,61.44
2018-12-27T21:03:04.582Z,61.42
2018-12-27T21:05:33.962Z,61.43
2018-12-27T21:08:02.805Z,61.45
2018-12-27T21:10:32.924Z,61.42
2018-12-27T21:13:02.035Z,61.44
2018-12-27T21:15:30.895Z,61.47
2018-12-27T21:18:00.084Z,61.45
2018-12-27T21:20:29.189Z,61.43
2018-12-27T21:22:58.785Z,61.46
2018-12-27T21:25:28.150Z,61.49
2018-12-27T21:27:57.589Z,61.52
2018-12-27T21:30:26.927Z,61.59
2018-12-27T21:32:56.180Z,61.60
2018-12-27T21:35:25.584Z,61.62
2018-12-27T21:37:55.221Z,61.67
2018-12-27T21:40:24.406Z,61.75
2018-12-27T21:42:53.345Z,61.80
2018-12-27T21:45:22.269Z,61.85
2018-12-27T21:47:51.124Z,61.84
2018-12-27T21:50:20.276Z,61.76
2018-12-27T21:52:49.198Z,61.66
2018-12-27T21:55:18.477Z,61.60
2018-12-27T21:57:47.382Z,61.51
2018-12-27T22:00:16.442Z,61.41
2018-12-27T22:02:45.669Z,61.36
2018-12-27T22:05:15.563Z,61.34
2018-12-27T22:07:44.774Z,61.33
2018-12-27T22:10:13.853Z,61.32
2018-12-27T22:12:43.289Z,61.24
2018-12-27T22:15:13.189Z,61.15
2018-12-27T22:17:42.052Z,61.00
2018-12-27T22:20:11.434Z,60.99
2018-12-27T22:22:40.661Z,61.04
2018-12-27T22:25:10.191Z,61.09
2018-12-27T22:27:39.043Z,61.05
2018-12-27T22:30:08.285Z,61.06
2018-12-27T22:32:37.533Z,61.06
2018-12-27T22:35:06.567Z,61.05
2018-12-27T22:37:35.757Z,60.98
2018-12-27T22:40:05.308Z,60.96
2018-12-27T22:42:34.257Z,61.09
2018-12-27T22:45:03.914Z,61.20
2018-12-27T22:47:33.711Z,61.33
2018-12-27T22:50:02.895Z,61.35
2018-12-27T22:52:31.743Z,61.33
2018-12-27T22:55:00.878Z,61.34
2018-12-27T22:57:29.980Z,61.34
2018-12-27T22:59:59.083Z,61.32
2018-12-27T23:02:28.377Z,61.28
2018-12-27T23:04:57.570Z,61.29
2018-12-27T23:07:26.774Z,61.25
2018-12-27T23:09:55.963Z,61.16
2018-12-27T23:12:25.456Z,61.17
2018-12-27T23:14:55.221Z,61.17
2018-12-27T23:17:24.969Z,61.10
2018-12-27T23:19:53.910Z,61.10
2018-12-27T23:22:23.073Z,61.11
2018-12-27T23:24:52.261Z,61.09
2018-12-27T23:27:21.396Z,61.09
2018-12-27T23:29:50.660Z,61.08
2018-12-27T23:32:20.152Z,60.99
2018-12-27T23:34:49.411Z,61.06
2018-12-27T23:37:19.207Z,61.09
2018-12-27T23:39:48.396Z,61.07
2018-12-27T23:42:17.252Z,61.04
2018-12-27T23:44:46.459Z,60.93
2018-12-27T23:47:15.695Z,60.85
2018-12-27T23:49:45.307Z,60.79
2018-12-27T23:52:14.591Z,60.75
2018-12-27T23:54:43.852Z,60.66
2018-12-27T23:57:13.297Z,60.68
2018-12-27T23:59:42.675Z,60.71
